createdAt,value
2023-09-15T00:01:41.153Z,13.43
2023-09-15T00:04:08.805Z,13.23
2023-09-15T00:06:36.782Z,12.88
2023-09-15T00:09:15.415Z,12.13
2023-09-15T00:11:43.689Z,11.63
2023-09-15T00:14:15.738Z,12.27
2023-09-15T00:16:44.536Z,12.93
2023-09-15T00:19:17.813Z,13.77
2023-09-15T00:21:48.391Z,14.45
2023-09-15T00:24:16.198Z,11.88
2023-09-15T00:26:44.829Z,13.70
2023-09-15T00:29:13.238Z,13.60
2023-09-15T00:31:41.883Z,12.65
2023-09-15T00:34:08.942Z,12.30
2023-09-15T00:36:36.514Z,12.60
2023-09-15T00:39:03.968Z,12.13
2023-09-15T00:41:31.528Z,12.38
2023-09-15T00:43:58.948Z,13.95
2023-09-15T00:46:26.266Z,13.07
2023-09-15T00:48:53.502Z,13.32
2023-09-15T00:51:22.673Z,13.27
2023-09-15T00:53:50.104Z,12.98
2023-09-15T00:56:18.349Z,12.43
2023-09-15T00:58:46.627Z,12.68
2023-09-15T01:01:14.803Z,13.05
2023-09-15T01:03:44.504Z,13.52
2023-09-15T01:06:12.832Z,13.20
2023-09-15T01:08:39.747Z,12.98
2023-09-15T01:11:06.924Z,13.88
2023-09-15T01:13:35.465Z,15.63
2023-09-15T01:16:09.479Z,15.00
2023-09-15T01:19:01.170Z,15.05
2023-09-15T01:22:24.200Z,17.35
2023-09-15T01:25:12.011Z,16.65
2023-09-15T01:27:44.533Z,19.50
2023-09-15T01:30:12.934Z,20.20
2023-09-15T01:32:42.641Z,19.30
2023-09-15T01:35:09.656Z,20.27
2023-09-15T01:37:36.728Z,20.85
2023-09-15T01:40:07.075Z,21.92
2023-09-15T01:42:34.035Z,22.23
2023-09-15T01:45:01.041Z,21.40
2023-09-15T01:47:29.577Z,22.13
2023-09-15T01:49:58.022Z,22.85
2023-09-15T01:52:25.250Z,23.45
2023-09-15T01:54:54.559Z,22.15
2023-09-15T01:57:23.023Z,22.05
2023-09-15T01:59:50.364Z,21.38
2023-09-15T02:02:17.480Z,22.13
2023-09-15T02:04:44.403Z,21.27
2023-09-15T02:07:11.359Z,20.80
2023-09-15T02:09:38.393Z,21.35
2023-09-15T02:12:05.626Z,20.58
2023-09-15T02:14:33.413Z,21.15
2023-09-15T02:17:00.376Z,23.40
2023-09-15T02:19:27.501Z,22.30
2023-09-15T02:21:54.505Z,24.73
2023-09-15T02:24:21.440Z,23.80
2023-09-15T02:26:48.331Z,25.55
2023-09-15T02:29:15.866Z,24.00
2023-09-15T02:31:43.172Z,23.10
2023-09-15T02:34:10.940Z,22.15
2023-09-15T02:36:39.255Z,26.63
2023-09-15T02:39:07.010Z,25.80
2023-09-15T02:41:35.014Z,26.33
2023-09-15T02:44:03.265Z,27.10
2023-09-15T02:46:30.785Z,26.98
2023-09-15T02:48:59.908Z,25.58
2023-09-15T02:51:28.130Z,26.17
2023-09-15T02:53:55.218Z,25.27
2023-09-15T02:56:24.249Z,24.52
2023-09-15T02:58:52.847Z,25.33
2023-09-15T03:01:21.326Z,24.30
2023-09-15T03:03:50.779Z,25.30
2023-09-15T03:06:18.478Z,24.90
2023-09-15T03:08:46.446Z,23.45
2023-09-15T03:11:20.412Z,24.00
2023-09-15T03:13:50.772Z,24.90
2023-09-15T03:16:17.962Z,22.90
2023-09-15T03:18:48.422Z,21.02
2023-09-15T03:21:17.930Z,19.02
2023-09-15T03:23:45.220Z,20.60
2023-09-15T03:26:14.162Z,18.98
2023-09-15T03:28:44.843Z,18.92
2023-09-15T03:31:12.053Z,19.35
2023-09-15T03:33:39.203Z,18.33
2023-09-15T03:36:08.244Z,19.73
2023-09-15T03:38:35.067Z,20.92
2023-09-15T03:41:02.091Z,20.52
2023-09-15T03:43:29.962Z,21.50
2023-09-15T03:46:00.370Z,19.95
2023-09-15T03:48:27.684Z,16.92
2023-09-15T03:50:56.297Z,15.63
2023-09-15T03:55:50.511Z,11.32
2023-09-15T03:58:18.214Z,12.00
2023-09-15T04:00:45.620Z,12.13
2023-09-15T04:03:12.657Z,10.98
2023-09-15T04:05:39.792Z,11.77
2023-09-15T04:08:06.965Z,10.73
2023-09-15T04:10:33.996Z,10.75
2023-09-15T04:13:00.907Z,10.40
2023-09-15T04:15:27.940Z,11.18
2023-09-15T04:17:56.708Z,10.85
2023-09-15T04:20:39.097Z,11.02
2023-09-15T04:23:12.849Z,9.13
2023-09-15T04:25:40.176Z,9.43
2023-09-15T04:28:07.433Z,11.65
2023-09-15T04:30:34.948Z,9.75
2023-09-15T04:33:02.816Z,9.48
2023-09-15T04:35:30.559Z,9.40
2023-09-15T04:37:57.543Z,8.80
2023-09-15T04:40:24.645Z,8.80
2023-09-15T04:42:51.789Z,9.45
2023-09-15T04:45:19.005Z,9.65
2023-09-15T04:47:46.539Z,10.27
2023-09-15T04:50:19.988Z,9.75
2023-09-15T04:52:48.335Z,10.30
2023-09-15T04:55:16.458Z,9.85
2023-09-15T04:57:43.865Z,11.63
2023-09-15T05:00:14.661Z,10.57
2023-09-15T05:02:46.961Z,9.70
2023-09-15T05:05:16.852Z,9.95
2023-09-15T05:07:43.990Z,8.82
2023-09-15T05:10:11.061Z,9.25
2023-09-15T05:12:38.270Z,8.15
2023-09-15T05:15:06.047Z,8.35
2023-09-15T05:17:35.217Z,9.40
2023-09-15T05:20:02.479Z,8.32
2023-09-15T05:22:30.095Z,8.45
2023-09-15T05:24:59.328Z,8.68
2023-09-15T05:27:26.649Z,7.85
2023-09-15T05:29:53.586Z,8.18
2023-09-15T05:32:20.489Z,7.60
2023-09-15T05:34:47.551Z,7.43
2023-09-15T05:37:15.790Z,7.15
2023-09-15T05:39:43.058Z,8.27
2023-09-15T05:42:10.884Z,7.60
2023-09-15T05:44:37.741Z,7.35
2023-09-15T05:47:04.977Z,7.35
2023-09-15T05:49:32.004Z,6.68
2023-09-15T05:51:59.076Z,6.93
2023-09-15T05:54:27.605Z,7.22
2023-09-15T05:56:54.949Z,6.72
2023-09-15T05:59:21.932Z,6.72
2023-09-15T06:01:49.146Z,7.63
2023-09-15T06:04:16.491Z,7.35
2023-09-15T06:06:43.833Z,7.50
2023-09-15T06:09:10.692Z,7.05
2023-09-15T06:11:37.632Z,6.30
2023-09-15T06:14:04.581Z,7.43
2023-09-15T06:16:35.549Z,6.63
2023-09-15T06:19:03.589Z,7.03
2023-09-15T06:21:31.141Z,7.13
2023-09-15T06:23:58.080Z,7.38
2023-09-15T06:26:25.383Z,6.38
2023-09-15T06:28:54.525Z,6.18
2023-09-15T06:31:22.945Z,6.57
2023-09-15T06:33:50.135Z,6.78
2023-09-15T06:36:17.168Z,7.30
2023-09-15T06:38:44.258Z,7.75
2023-09-15T06:41:11.341Z,6.93
2023-09-15T06:43:38.337Z,7.15
2023-09-15T06:46:05.568Z,6.88
2023-09-15T06:48:32.940Z,7.45
2023-09-15T06:50:59.929Z,7.15
2023-09-15T06:53:26.821Z,7.20
2023-09-15T06:55:57.042Z,7.35
2023-09-15T06:58:25.316Z,6.47
2023-09-15T07:00:56.580Z,7.70
2023-09-15T07:03:25.174Z,7.60
2023-09-15T07:05:52.300Z,7.70
2023-09-15T07:08:19.268Z,8.45
2023-09-15T07:10:46.277Z,8.05
2023-09-15T07:13:13.528Z,8.43
2023-09-15T07:15:40.459Z,7.97
2023-09-15T07:18:08.733Z,8.55
2023-09-15T07:20:35.739Z,7.60
2023-09-15T07:23:04.739Z,7.28
2023-09-15T07:25:31.785Z,8.07
2023-09-15T07:27:58.664Z,8.55
2023-09-15T07:30:27.001Z,6.90
2023-09-15T07:32:53.866Z,8.25
2023-09-15T07:35:20.854Z,7.97
2023-09-15T07:37:47.699Z,7.32
2023-09-15T07:40:14.696Z,8.48
2023-09-15T07:42:42.209Z,8.20
2023-09-15T07:45:09.701Z,8.63
2023-09-15T07:47:36.963Z,7.55
2023-09-15T07:50:03.976Z,8.13
2023-09-15T07:52:31.113Z,8.18
2023-09-15T07:54:58.189Z,7.68
2023-09-15T07:57:25.305Z,7.70
2023-09-15T07:59:53.187Z,8.32
2023-09-15T08:02:22.208Z,8.18
2023-09-15T08:04:49.373Z,8.63
2023-09-15T08:07:16.613Z,8.23
2023-09-15T08:09:43.431Z,7.88
2023-09-15T08:12:10.387Z,8.00
2023-09-15T08:14:37.417Z,8.30
2023-09-15T08:17:04.706Z,8.52
2023-09-15T08:19:31.798Z,9.15
2023-09-15T08:22:01.467Z,8.50
2023-09-15T08:24:28.617Z,8.60
2023-09-15T08:26:55.473Z,9.48
2023-09-15T08:29:22.396Z,8.00
2023-09-15T08:31:49.510Z,8.50
2023-09-15T08:34:16.899Z,9.85
2023-09-15T08:36:44.298Z,8.65
2023-09-15T08:39:13.365Z,8.85
2023-09-15T08:41:43.882Z,9.35
2023-09-15T08:44:11.290Z,10.57
2023-09-15T08:46:42.919Z,8.95
2023-09-15T08:49:11.076Z,9.13
2023-09-15T08:51:39.281Z,9.32
2023-09-15T08:54:08.121Z,8.63
2023-09-15T08:56:35.167Z,9.15
2023-09-15T08:59:04.881Z,8.05
2023-09-15T09:01:31.999Z,9.40
2023-09-15T09:03:59.053Z,10.57
2023-09-15T09:06:27.206Z,9.75
2023-09-15T09:08:55.449Z,11.05
2023-09-15T09:11:24.548Z,9.73
2023-09-15T09:13:54.950Z,8.77
2023-09-15T09:16:22.980Z,8.43
2023-09-15T09:19:01.943Z,10.02
2023-09-15T09:21:30.945Z,9.18
2023-09-15T09:23:58.707Z,10.30
2023-09-15T09:26:25.828Z,9.38
2023-09-15T09:28:58.091Z,10.18
2023-09-15T09:31:30.199Z,9.13
2023-09-15T09:33:59.790Z,9.15
2023-09-15T09:36:26.953Z,8.45
2023-09-15T09:38:54.383Z,8.88
2023-09-15T09:41:24.033Z,8.73
2023-09-15T09:43:51.384Z,8.55
2023-09-15T09:46:21.762Z,9.23
2023-09-15T09:48:50.892Z,9.52
2023-09-15T09:51:19.575Z,8.90
2023-09-15T09:56:13.948Z,8.85
2023-09-15T09:58:40.947Z,8.02
2023-09-15T10:01:08.167Z,10.07
2023-09-15T10:03:35.532Z,9.88
2023-09-15T10:06:05.053Z,9.93
2023-09-15T10:08:32.789Z,9.75
2023-09-15T10:11:00.232Z,8.68
2023-09-15T10:13:29.853Z,10.27
2023-09-15T10:15:57.980Z,9.98
2023-09-15T10:18:26.748Z,9.98
2023-09-15T10:20:56.234Z,10.65
2023-09-15T10:23:24.296Z,10.40
2023-09-15T10:25:55.603Z,10.35
2023-09-15T10:28:56.081Z,10.18
2023-09-15T10:31:13.863Z,9.85
2023-09-15T10:33:41.800Z,10.00
2023-09-15T10:36:14.148Z,10.57
2023-09-15T10:38:42.745Z,10.88
2023-09-15T10:41:12.220Z,10.88
2023-09-15T10:43:51.416Z,12.43
2023-09-15T10:46:18.503Z,11.65
2023-09-15T10:48:49.984Z,12.50
2023-09-15T10:51:19.949Z,13.55
2023-09-15T10:53:47.238Z,12.70
2023-09-15T10:56:16.325Z,13.77
2023-09-15T10:58:43.588Z,14.07
2023-09-15T11:01:11.601Z,12.63
2023-09-15T11:03:39.564Z,13.25
2023-09-15T11:06:18.095Z,14.13
2023-09-15T11:08:45.109Z,12.77
2023-09-15T11:11:12.168Z,12.82
2023-09-15T11:13:42.788Z,13.02
2023-09-15T11:16:11.553Z,10.80
2023-09-15T11:18:39.609Z,12.43
2023-09-15T11:21:07.608Z,12.95
2023-09-15T11:23:38.658Z,11.63
2023-09-15T11:26:21.230Z,11.32
2023-09-15T11:28:55.210Z,10.07
2023-09-15T11:31:23.995Z,11.13
2023-09-15T11:33:53.661Z,10.48
2023-09-15T11:36:22.374Z,15.68
2023-09-15T11:38:50.095Z,12.50
2023-09-15T11:41:17.810Z,10.85
2023-09-15T11:43:45.377Z,10.48
2023-09-15T11:46:15.157Z,10.40
2023-09-15T11:48:45.700Z,11.88
2023-09-15T11:51:14.856Z,9.70
2023-09-15T11:53:46.060Z,10.23
2023-09-15T11:56:19.539Z,9.32
2023-09-15T11:58:51.331Z,11.02
2023-09-15T12:01:23.045Z,9.52
2023-09-15T12:03:50.830Z,10.15
2023-09-15T12:06:19.160Z,10.80
2023-09-15T12:08:49.298Z,9.70
2023-09-15T12:11:17.344Z,8.52
2023-09-15T12:13:44.831Z,8.05
2023-09-15T12:16:18.784Z,7.70
2023-09-15T12:18:48.124Z,8.93
2023-09-15T12:21:16.508Z,9.32
2023-09-15T12:23:45.499Z,10.43
2023-09-15T12:26:13.250Z,10.15
2023-09-15T12:28:42.970Z,10.23
2023-09-15T12:31:19.349Z,10.15
2023-09-15T12:33:46.916Z,10.80
2023-09-15T12:36:14.277Z,11.35
2023-09-15T12:38:41.479Z,10.43
2023-09-15T12:41:09.456Z,10.40
2023-09-15T12:43:36.634Z,10.38
2023-09-15T12:46:04.537Z,10.57
2023-09-15T12:48:32.084Z,8.90
2023-09-15T12:51:00.222Z,9.75
2023-09-15T12:53:27.424Z,8.77
2023-09-15T12:55:55.436Z,10.48
2023-09-15T12:58:22.457Z,9.07
2023-09-15T13:00:49.312Z,9.43
2023-09-15T13:03:16.672Z,8.80
2023-09-15T13:05:43.875Z,8.75
2023-09-15T13:08:11.532Z,9.38
2023-09-15T13:10:38.516Z,8.20
2023-09-15T13:13:06.191Z,8.40
2023-09-15T13:15:33.185Z,8.80
2023-09-15T13:18:00.099Z,9.50
2023-09-15T13:20:27.022Z,8.30
2023-09-15T13:22:53.971Z,8.93
2023-09-15T13:25:21.322Z,9.50
2023-09-15T13:27:48.166Z,9.85
2023-09-15T13:30:15.986Z,11.10
2023-09-15T13:32:45.370Z,10.55
2023-09-15T13:35:14.182Z,10.65
2023-09-15T13:37:41.954Z,10.30
2023-09-15T13:40:09.420Z,9.65
2023-09-15T13:42:37.873Z,10.20
2023-09-15T13:45:06.170Z,10.85
2023-09-15T13:50:02.196Z,9.85
2023-09-15T13:54:57.580Z,10.35
2023-09-15T13:57:28.353Z,8.95
2023-09-15T13:59:56.256Z,6.75
2023-09-15T14:02:25.092Z,7.40
2023-09-15T14:04:52.102Z,7.95
2023-09-15T14:07:19.156Z,7.63
2023-09-15T14:09:46.183Z,7.50
2023-09-15T14:12:13.427Z,8.80
2023-09-15T14:14:40.437Z,10.25
2023-09-15T14:17:09.083Z,10.75
2023-09-15T14:19:36.269Z,11.90
2023-09-15T14:22:04.338Z,9.27
2023-09-15T14:24:35.829Z,11.00
2023-09-15T14:27:06.399Z,9.52
2023-09-15T14:29:33.863Z,12.13
2023-09-15T14:32:01.837Z,11.07
2023-09-15T14:34:29.313Z,12.02
2023-09-15T14:37:00.223Z,11.48
2023-09-15T14:39:28.843Z,10.93
2023-09-15T14:41:56.758Z,10.32
2023-09-15T14:44:23.747Z,13.02
2023-09-15T14:46:51.873Z,11.20
2023-09-15T14:51:46.233Z,11.43
2023-09-15T14:54:13.447Z,11.35
2023-09-15T14:56:41.897Z,10.48
2023-09-15T14:59:11.021Z,11.07
2023-09-15T15:01:38.630Z,11.82
2023-09-15T15:04:06.003Z,11.18
2023-09-15T15:06:32.925Z,13.02
2023-09-15T15:09:00.084Z,12.63
2023-09-15T15:11:27.022Z,12.07
2023-09-15T15:13:53.964Z,12.48
2023-09-15T15:16:20.965Z,11.98
2023-09-15T15:18:48.572Z,11.55
2023-09-15T15:21:16.970Z,12.60
2023-09-15T15:26:13.200Z,11.60
2023-09-15T15:28:40.135Z,12.77
2023-09-15T15:31:17.528Z,11.48
2023-09-15T15:33:45.258Z,12.70
2023-09-15T15:36:12.422Z,13.10
2023-09-15T15:38:39.655Z,13.23
2023-09-15T15:41:08.323Z,13.77
2023-09-15T15:43:37.246Z,12.95
2023-09-15T15:46:05.964Z,12.00
2023-09-15T15:48:35.096Z,13.00
2023-09-15T15:51:06.505Z,13.55
2023-09-15T15:53:34.430Z,13.07
2023-09-15T15:56:02.292Z,12.70
2023-09-15T15:58:29.453Z,11.23
2023-09-15T16:00:56.520Z,13.20
2023-09-15T16:03:23.753Z,13.18
2023-09-15T16:05:57.811Z,14.07
2023-09-15T16:08:25.087Z,13.07
2023-09-15T16:10:52.276Z,12.23
2023-09-15T16:13:19.227Z,11.13
2023-09-15T16:15:47.092Z,10.70
2023-09-15T16:20:44.985Z,9.52
2023-09-15T16:23:13.594Z,9.38
2023-09-15T16:25:41.752Z,10.18
2023-09-15T16:28:09.034Z,9.07
2023-09-15T16:30:41.107Z,9.88
2023-09-15T16:33:10.422Z,8.80
2023-09-15T16:35:40.207Z,9.07
2023-09-15T16:38:07.194Z,10.70
2023-09-15T16:40:36.794Z,9.50
2023-09-15T16:43:04.377Z,8.88
2023-09-15T16:45:33.588Z,9.65
2023-09-15T16:48:01.534Z,9.38
2023-09-15T16:50:28.751Z,9.27
2023-09-15T16:52:56.826Z,9.85
2023-09-15T16:55:23.993Z,9.27
2023-09-15T16:57:52.420Z,11.23
2023-09-15T17:00:19.472Z,10.15
2023-09-15T17:02:46.579Z,10.77
2023-09-15T17:05:16.585Z,9.95
2023-09-15T17:07:43.800Z,10.45
2023-09-15T17:10:13.739Z,11.48
2023-09-15T17:12:42.038Z,11.55
2023-09-15T17:15:09.837Z,12.07
2023-09-15T17:17:36.811Z,11.85
2023-09-15T17:20:04.220Z,11.13
2023-09-15T17:22:31.259Z,12.43
2023-09-15T17:24:58.646Z,12.23
2023-09-15T17:27:25.648Z,12.07
2023-09-15T17:29:52.636Z,13.30
2023-09-15T17:32:19.477Z,11.82
2023-09-15T17:34:47.753Z,12.15
2023-09-15T17:37:16.133Z,11.15
2023-09-15T17:44:47.502Z,11.20
2023-09-15T17:47:14.456Z,11.68
2023-09-15T17:49:41.735Z,11.73
2023-09-15T17:52:10.860Z,11.93
2023-09-15T17:54:37.974Z,11.07
2023-09-15T17:57:05.507Z,11.50
2023-09-15T17:59:32.504Z,11.82
2023-09-15T18:01:59.847Z,11.52
2023-09-15T18:04:26.934Z,11.10
2023-09-15T18:06:53.878Z,11.98
2023-09-15T18:09:20.859Z,12.00
2023-09-15T18:11:47.867Z,11.57
2023-09-15T18:14:15.005Z,13.15
2023-09-15T18:16:41.942Z,10.95
2023-09-15T18:19:09.207Z,11.57
2023-09-15T18:21:36.395Z,12.15
2023-09-15T18:24:03.376Z,12.90
2023-09-15T18:26:30.369Z,12.82
2023-09-15T18:28:57.288Z,12.95
2023-09-15T18:31:24.326Z,12.85
2023-09-15T18:33:52.577Z,12.50
2023-09-15T18:36:21.632Z,12.18
2023-09-15T18:38:49.703Z,12.18
2023-09-15T18:41:17.295Z,13.60
2023-09-15T18:43:44.491Z,13.27
2023-09-15T18:46:11.586Z,12.02
2023-09-15T18:48:38.815Z,14.20
2023-09-15T18:51:06.026Z,13.77
2023-09-15T18:53:32.917Z,14.45
2023-09-15T18:55:59.736Z,14.30
2023-09-15T18:58:27.141Z,13.50
2023-09-15T19:00:55.986Z,14.35
2023-09-15T19:03:23.255Z,13.95
2023-09-15T19:05:51.322Z,12.93
2023-09-15T19:08:18.251Z,12.25
2023-09-15T19:10:45.309Z,13.10
2023-09-15T19:13:23.181Z,13.18
2023-09-15T19:15:54.636Z,14.57
2023-09-15T19:18:23.649Z,14.38
2023-09-15T19:20:50.662Z,14.35
2023-09-15T19:23:17.631Z,14.45
2023-09-15T19:25:45.460Z,14.55
2023-09-15T19:28:12.385Z,15.45
2023-09-15T19:30:45.550Z,15.88
2023-09-15T19:33:12.870Z,14.85
2023-09-15T19:35:41.088Z,15.02
2023-09-15T19:38:08.038Z,15.75
2023-09-15T19:40:35.010Z,16.17
2023-09-15T19:43:08.537Z,15.10
2023-09-15T19:45:35.772Z,16.35
2023-09-15T19:48:02.833Z,15.05
2023-09-15T19:50:29.818Z,14.43
2023-09-15T19:52:57.222Z,14.85
2023-09-15T19:55:24.240Z,15.93
2023-09-15T19:57:53.289Z,15.57
2023-09-15T20:00:20.961Z,15.43
2023-09-15T20:02:49.700Z,14.85
2023-09-15T20:07:44.266Z,13.48
2023-09-15T20:10:12.627Z,14.25
2023-09-15T20:15:11.291Z,13.55
2023-09-15T20:17:39.591Z,15.00
2023-09-15T20:20:08.253Z,15.30
2023-09-15T20:22:36.267Z,15.18
2023-09-15T20:25:07.483Z,14.20
2023-09-15T20:27:39.569Z,14.40
2023-09-15T20:30:07.426Z,15.15
2023-09-15T20:32:34.433Z,14.43
2023-09-15T20:35:03.214Z,13.93
2023-09-15T20:37:30.716Z,14.95
2023-09-15T20:39:57.693Z,14.40
2023-09-15T20:42:25.856Z,15.25
2023-09-15T20:44:52.997Z,14.80
2023-09-15T20:47:20.073Z,14.90
2023-09-15T20:49:48.894Z,15.23
2023-09-15T20:52:16.946Z,16.17
2023-09-15T20:54:44.479Z,15.93
2023-09-15T20:57:11.521Z,15.65
2023-09-15T20:59:38.474Z,16.10
2023-09-15T21:02:05.389Z,17.83
2023-09-15T21:04:32.393Z,17.30
2023-09-15T21:06:59.632Z,17.35
2023-09-15T21:09:28.680Z,17.95
2023-09-15T21:11:56.061Z,16.35
2023-09-15T21:14:24.652Z,16.30
2023-09-15T21:16:51.815Z,16.95
2023-09-15T21:19:19.602Z,16.45
2023-09-15T21:21:46.731Z,17.13
2023-09-15T21:24:13.823Z,17.65
2023-09-15T21:26:40.793Z,17.13
2023-09-15T21:29:07.953Z,18.48
2023-09-15T21:31:35.209Z,19.17
2023-09-15T21:34:02.544Z,18.15
2023-09-15T21:36:29.564Z,19.58
2023-09-15T21:38:56.731Z,21.10
2023-09-15T21:41:27.048Z,19.42
2023-09-15T21:43:54.078Z,19.73
2023-09-15T21:46:21.866Z,20.25
2023-09-15T21:48:49.580Z,19.83
2023-09-15T21:51:16.808Z,18.48
2023-09-15T21:53:43.788Z,19.98
2023-09-15T21:56:10.742Z,21.83
2023-09-15T21:58:37.767Z,21.50
2023-09-15T22:01:06.442Z,22.65
2023-09-15T22:06:00.468Z,20.48
2023-09-15T22:08:27.906Z,20.77
2023-09-15T22:10:54.907Z,22.40
2023-09-15T22:13:22.017Z,22.50
2023-09-15T22:15:49.041Z,23.10
2023-09-15T22:18:16.007Z,23.00
2023-09-15T22:20:43.903Z,22.13
2023-09-15T22:23:12.546Z,21.50
2023-09-15T22:25:40.033Z,21.90
2023-09-15T22:28:07.755Z,22.75
2023-09-15T22:30:35.097Z,23.23
2023-09-15T22:33:03.636Z,20.88
2023-09-15T22:38:01.323Z,29.55
2023-09-15T22:40:28.864Z,30.50
2023-09-15T22:42:56.145Z,23.73
2023-09-15T22:45:23.767Z,23.67
2023-09-15T22:47:59.288Z,21.70
2023-09-15T22:50:27.117Z,24.38
2023-09-15T22:52:54.206Z,24.63
2023-09-15T22:55:22.056Z,24.05
2023-09-15T22:57:49.576Z,22.88
2023-09-15T23:00:18.227Z,23.20
2023-09-15T23:02:50.720Z,24.55
2023-09-15T23:05:18.632Z,24.48
2023-09-15T23:07:46.075Z,23.35
2023-09-15T23:10:13.318Z,23.65
2023-09-15T23:12:40.937Z,22.85
2023-09-15T23:15:08.692Z,23.38
2023-09-15T23:17:35.897Z,26.13
2023-09-15T23:20:04.030Z,24.55
2023-09-15T23:22:31.454Z,25.25
2023-09-15T23:24:58.731Z,24.17
2023-09-15T23:27:25.995Z,23.83
2023-09-15T23:29:53.060Z,23.77
2023-09-15T23:32:19.962Z,25.38
2023-09-15T23:34:46.917Z,24.02
2023-09-15T23:37:13.862Z,24.02
2023-09-15T23:39:41.047Z,24.08
2023-09-15T23:42:09.187Z,24.67
2023-09-15T23:44:36.413Z,25.48
2023-09-15T23:47:03.436Z,24.65
2023-09-15T23:49:31.058Z,25.02
2023-09-15T23:51:58.232Z,27.63
2023-09-15T23:54:25.443Z,24.90
2023-09-15T23:56:52.420Z,26.08
2023-09-15T23:59:19.404Z,28.70
